Time;durP1;ratioP1;P1;durP2;ratioP2;P2;SDS_P1;SDS_P2;PMS_P1;PMS_P2;Temp;Humidity;BMP_temperature;BMP_pressure;BME280_temperature;BME280_humidity;BME280_pressure;Samples;Min_cycle;Max_cycle;Signal;HPM_P1;HPM_P2
2023/10/07 00:02:51;;;;;;;6.53;1.83;;;18.20;96.30;;;;;;5059530;28;20032;-61
2023/10/07 00:05:25;;;;;;;5.53;2.28;;;18.30;96.20;;;;;;5061736;28;20601;-61
2023/10/07 00:07:52;;;;;;;6.85;1.85;;;18.30;96.10;;;;;;5054550;28;20522;-62
2023/10/07 00:10:25;;;;;;;3.88;2.03;;;18.30;96.20;;;;;;5061394;28;20040;-61
2023/10/07 00:12:52;;;;;;;4.75;2.00;;;18.30;96.30;;;;;;5055403;28;20025;-61
2023/10/07 00:15:21;;;;;;;5.22;1.95;;;18.40;96.00;;;;;;5058907;28;20093;-61
2023/10/07 00:17:47;;;;;;;3.20;1.80;;;18.40;96.10;;;;;;5055517;28;20028;-61
2023/10/07 00:20:14;;;;;;;3.95;1.83;;;18.40;96.10;;;;;;5059441;28;20041;-62
2023/10/07 00:22:47;;;;;;;3.83;1.88;;;18.40;96.00;;;;;;5056823;28;20029;-61
2023/10/07 00:25:16;;;;;;;4.03;1.65;;;18.40;96.10;;;;;;5056936;28;20037;-61
2023/10/07 00:27:42;;;;;;;5.72;1.85;;;18.50;96.30;;;;;;5062651;28;20029;-62
2023/10/07 00:30:22;;;;;;;5.60;1.80;;;18.40;96.10;;;;;;5057374;28;20032;-61
2023/10/07 00:32:50;;;;;;;3.88;1.80;;;18.40;96.30;;;;;;5049500;28;20110;-61
2023/10/07 00:35:20;;;;;;;5.22;1.80;;;18.40;96.00;;;;;;5059271;28;20025;-61
2023/10/07 00:37:46;;;;;;;6.90;2.08;;;18.50;96.20;;;;;;5055641;28;20033;-62
2023/10/07 00:40:25;;;;;;;6.80;1.80;;;18.40;96.20;;;;;;5057919;28;20038;-61
2023/10/07 00:42:52;;;;;;;6.20;2.40;;;18.40;96.20;;;;;;5055506;28;20043;-62
2023/10/07 00:45:20;;;;;;;3.95;1.85;;;18.40;96.20;;;;;;5059029;28;20035;-61
2023/10/07 00:47:51;;;;;;;2.60;1.58;;;18.40;96.20;;;;;;5058451;28;20032;-62
2023/10/07 00:50:19;;;;;;;7.43;2.30;;;18.40;96.20;;;;;;5059151;28;20032;-61
2023/10/07 00:58:03;;;;;;;3.15;1.70;;;18.40;96.40;;;;;;5056861;28;20127;-62
2023/10/07 01:00:48;;;;;;;3.65;1.65;;;18.40;96.40;;;;;;5062410;28;20021;-61
2023/10/07 01:03:31;;;;;;;5.65;2.10;;;18.40;96.40;;;;;;5063542;28;20036;-62
2023/10/07 01:08:35;;;;;;;5.03;2.10;;;18.30;96.60;;;;;;5059109;28;20036;-61
2023/10/07 01:13:50;;;;;;;4.93;2.17;;;18.20;97.10;;;;;;5057758;28;20094;-61
2023/10/07 01:17:03;;;;;;;4.40;1.77;;;18.30;97.00;;;;;;5059967;28;20031;-61
2023/10/07 01:21:46;;;;;;;4.80;1.92;;;18.40;97.00;;;;;;5059563;28;20048;-61
2023/10/07 01:24:13;;;;;;;7.60;2.28;;;18.40;97.00;;;;;;5057414;28;20028;-61
2023/10/07 01:26:43;;;;;;;3.97;1.77;;;18.40;97.00;;;;;;5060233;28;20052;-61
2023/10/07 01:29:13;;;;;;;5.55;2.30;;;18.40;96.90;;;;;;5065120;28;20040;-61
2023/10/07 01:31:43;;;;;;;5.50;1.92;;;18.50;96.70;;;;;;5060359;28;20032;-61
2023/10/07 01:34:13;;;;;;;5.25;2.00;;;18.50;96.80;;;;;;5061032;28;20067;-62
2023/10/07 01:36:41;;;;;;;6.05;1.95;;;18.50;96.80;;;;;;5057822;28;20025;-61
2023/10/07 01:39:07;;;;;;;5.25;1.90;;;18.50;96.80;;;;;;5058580;28;20021;-62
2023/10/07 01:41:38;;;;;;;6.22;2.50;;;18.50;96.70;;;;;;5058838;28;20029;-62
2023/10/07 01:44:08;;;;;;;5.00;2.13;;;18.40;97.00;;;;;;5062695;28;20151;-62
2023/10/07 01:46:34;;;;;;;4.50;2.53;;;18.40;96.90;;;;;;5059344;28;20043;-62
2023/10/07 01:49:11;;;;;;;6.18;2.00;;;18.40;97.00;;;;;;5063640;28;21095;-61
2023/10/07 01:51:44;;;;;;;6.90;1.98;;;18.30;97.20;;;;;;5060341;28;20545;-61
2023/10/07 01:54:11;;;;;;;6.68;2.22;;;18.30;97.50;;;;;;5060681;28;20067;-62
2023/10/07 01:56:38;;;;;;;7.70;2.47;;;18.30;97.20;;;;;;5059738;28;20737;-61
2023/10/07 01:59:09;;;;;;;3.65;1.92;;;18.40;97.30;;;;;;5057949;28;20057;-62
2023/10/07 02:01:35;;;;;;;6.20;2.00;;;18.40;97.30;;;;;;5060242;28;20790;-62
2023/10/07 02:04:15;;;;;;;8.32;2.00;;;18.50;97.20;;;;;;5058382;28;20041;-61
2023/10/07 02:06:50;;;;;;;4.50;2.05;;;18.50;97.30;;;;;;5056260;28;20032;-61
2023/10/07 02:09:23;;;;;;;4.60;2.07;;;18.40;97.20;;;;;;5057869;28;20025;-61
2023/10/07 02:11:53;;;;;;;4.85;2.00;;;18.30;97.40;;;;;;5056348;28;20132;-61
2023/10/07 02:14:23;;;;;;;5.65;2.08;;;18.30;97.50;;;;;;5058846;28;20016;-62
2023/10/07 02:16:49;;;;;;;5.10;1.90;;;18.40;97.60;;;;;;5060148;28;20035;-61
2023/10/07 02:19:26;;;;;;;7.43;2.03;;;18.40;97.50;;;;;;5063909;28;20031;-61
2023/10/07 02:22:07;;;;;;;5.50;2.92;;;18.40;97.60;;;;;;5057684;28;20029;-61
2023/10/07 02:24:35;;;;;;;7.03;2.58;;;18.40;97.60;;;;;;5062140;28;20107;-61
2023/10/07 02:27:06;;;;;;;5.35;2.20;;;18.30;97.70;;;;;;5060147;28;20547;-61
2023/10/07 02:29:35;;;;;;;8.07;3.17;;;18.30;97.80;;;;;;5057999;28;20119;-61
2023/10/07 02:32:13;;;;;;;5.00;2.33;;;18.30;97.70;;;;;;5057499;28;20029;-62
2023/10/07 02:34:51;;;;;;;4.63;2.47;;;18.30;97.80;;;;;;5056715;28;20103;-62
2023/10/07 02:37:20;;;;;;;5.85;2.20;;;18.30;97.70;;;;;;5058015;28;20052;-61
2023/10/07 02:39:46;;;;;;;6.53;2.67;;;18.30;97.90;;;;;;5058105;28;20107;-61
2023/10/07 02:42:21;;;;;;;8.55;2.70;;;18.30;98.00;;;;;;5059939;28;20041;-61
2023/10/07 02:44:51;;;;;;;5.35;2.35;;;18.20;97.90;;;;;;5055128;28;20573;-62
2023/10/07 02:47:18;;;;;;;4.35;2.35;;;18.30;98.10;;;;;;5061068;28;20025;-61
2023/10/07 02:49:49;;;;;;;8.73;2.83;;;18.30;98.20;;;;;;5056707;28;20025;-62
2023/10/07 02:52:17;;;;;;;6.88;2.17;;;18.30;98.00;;;;;;5060780;28;20024;-62
2023/10/07 02:54:44;;;;;;;9.45;2.92;;;18.20;98.00;;;;;;5056508;28;20031;-61
2023/10/07 02:57:22;;;;;;;7.60;2.83;;;18.20;98.00;;;;;;5053794;28;20025;-61
2023/10/07 02:59:51;;;;;;;5.35;2.38;;;18.20;98.30;;;;;;5056327;28;20606;-61
2023/10/07 03:07:34;;;;;;;5.68;2.80;;;18.20;98.30;;;;;;5056455;28;20028;-61
2023/10/07 03:10:18;;;;;;;5.43;2.58;;;18.30;98.20;;;;;;5055304;28;20080;-62
2023/10/07 03:12:49;;;;;;;6.68;3.03;;;18.30;98.10;;;;;;5054380;28;20029;-62
2023/10/07 03:15:39;;;;;;;4.60;2.08;;;18.30;98.10;;;;;;5057561;28;20529;-61
2023/10/07 03:18:21;;;;;;;5.18;2.47;;;18.40;98.30;;;;;;5058034;28;20030;-62
2023/10/07 03:20:59;;;;;;;6.68;2.40;;;18.30;98.30;;;;;;5058037;28;20033;-61
2023/10/07 03:23:26;;;;;;;7.60;2.55;;;18.30;98.30;;;;;;5061490;28;20032;-61
2023/10/07 03:28:30;;;;;;;7.78;2.58;;;18.30;98.30;;;;;;5059796;28;20036;-61
2023/10/07 03:30:56;;;;;;;7.88;2.22;;;18.30;98.30;;;;;;5055474;28;20029;-61
2023/10/07 03:33:32;;;;;;;5.55;2.55;;;18.30;98.30;;;;;;5058047;28;20052;-61
2023/10/07 03:36:07;;;;;;;5.28;2.33;;;18.30;98.40;;;;;;5055430;28;20033;-61
2023/10/07 03:38:35;;;;;;;6.15;2.20;;;18.20;98.30;;;;;;5056073;28;20036;-61
2023/10/07 03:41:06;;;;;;;5.13;2.33;;;18.30;98.50;;;;;;5060971;28;20029;-66
2023/10/07 03:43:34;;;;;;;4.47;2.17;;;18.30;98.50;;;;;;5054967;28;20033;-66
2023/10/07 03:46:00;;;;;;;5.13;2.65;;;18.30;98.70;;;;;;5056885;28;20123;-66
2023/10/07 03:48:31;;;;;;;6.85;2.25;;;18.30;98.40;;;;;;5061939;28;20151;-66
2023/10/07 03:51:08;;;;;;;4.18;2.03;;;18.30;98.50;;;;;;5060697;28;20057;-66
2023/10/07 03:53:47;;;;;;;5.10;2.17;;;18.30;98.60;;;;;;5060136;28;20575;-66
2023/10/07 03:56:19;;;;;;;5.70;2.40;;;18.30;98.50;;;;;;5057346;28;20029;-66
2023/10/07 03:58:47;;;;;;;4.35;3.10;;;18.30;98.70;;;;;;5058966;28;20105;-66
2023/10/07 04:01:17;;;;;;;4.18;2.20;;;18.30;98.60;;;;;;5057905;28;20547;-66
2023/10/07 04:03:47;;;;;;;11.85;2.47;;;18.30;98.50;;;;;;5064161;28;20060;-66
2023/10/07 04:06:16;;;;;;;6.28;2.58;;;18.40;98.50;;;;;;5059339;28;20035;-66
2023/10/07 04:08:44;;;;;;;6.32;2.13;;;18.30;98.80;;;;;;5061501;28;20067;-66
2023/10/07 04:11:17;;;;;;;8.13;2.60;;;18.30;98.70;;;;;;5059714;28;20775;-66
2023/10/07 04:13:44;;;;;;;6.72;2.38;;;18.30;98.90;;;;;;5060859;28;20555;-61
2023/10/07 04:16:33;;;;;;;10.75;2.40;;;18.20;98.90;;;;;;5057911;28;20043;-61
2023/10/07 04:19:29;;;;;;;5.80;2.30;;;18.20;99.00;;;;;;5055166;28;20037;-62
2023/10/07 04:21:54;;;;;;;5.57;2.27;;;18.20;99.00;;;;;;5059361;28;20194;-62
2023/10/07 04:24:23;;;;;;;7.25;2.65;;;18.20;99.20;;;;;;5060491;28;20040;-61
2023/10/07 04:26:54;;;;;;;4.78;2.20;;;18.20;99.10;;;;;;5062537;28;20028;-61
2023/10/07 04:29:24;;;;;;;9.25;2.75;;;18.20;99.10;;;;;;5061893;28;20851;-61
2023/10/07 04:31:51;;;;;;;10.02;2.47;;;18.30;98.90;;;;;;5062550;28;20044;-62
2023/10/07 04:34:24;;;;;;;5.38;2.67;;;18.30;99.00;;;;;;5061250;28;20032;-62
2023/10/07 04:39:38;;;;;;;3.17;2.28;;;18.30;99.00;;;;;;5060409;28;20026;-61
2023/10/07 04:42:07;;;;;;;7.10;2.70;;;18.40;99.00;;;;;;5062977;28;20029;-62
2023/10/07 04:52:39;;;;;;;8.32;2.30;;;18.10;99.40;;;;;;5064316;28;20155;-61
2023/10/07 04:55:19;;;;;;;7.80;2.88;;;18.00;99.70;;;;;;5058876;28;20033;-61
2023/10/07 05:03:03;;;;;;;8.93;2.58;;;18.00;99.70;;;;;;5061221;28;20072;-61
2023/10/07 05:05:35;;;;;;;6.03;2.88;;;18.00;99.80;;;;;;5058189;28;20123;-62
2023/10/07 05:08:17;;;;;;;5.55;2.47;;;18.00;99.80;;;;;;5061840;28;20505;-62
2023/10/07 05:10:52;;;;;;;7.22;2.55;;;18.10;99.70;;;;;;5059528;28;20112;-62
2023/10/07 05:13:19;;;;;;;9.40;2.92;;;18.00;99.70;;;;;;5059842;28;20463;-61
2023/10/07 05:15:45;;;;;;;4.45;2.30;;;18.00;99.90;;;;;;5056130;28;20036;-61
2023/10/07 05:18:16;;;;;;;4.40;2.35;;;18.10;99.70;;;;;;5062926;28;20438;-61
2023/10/07 05:20:48;;;;;;;4.60;2.40;;;18.10;99.70;;;;;;5057222;28;20025;-62
2023/10/07 05:23:14;;;;;;;4.35;2.08;;;18.20;99.40;;;;;;5059447;28;20718;-61
2023/10/07 05:26:03;;;;;;;7.40;2.42;;;18.20;99.20;;;;;;5059467;28;20048;-61
2023/10/07 05:28:32;;;;;;;4.82;2.40;;;18.30;99.20;;;;;;5062255;28;20512;-61
2023/10/07 05:31:03;;;;;;;6.53;2.75;;;18.20;99.10;;;;;;5056400;28;20072;-61
2023/10/07 05:33:32;;;;;;;7.88;2.50;;;18.30;99.20;;;;;;5063073;28;20106;-61
2023/10/07 05:36:14;;;;;;;9.50;3.25;;;18.30;99.30;;;;;;5055829;28;20033;-61
2023/10/07 05:38:44;;;;;;;4.28;2.35;;;18.30;99.20;;;;;;5058035;28;20037;-61
2023/10/07 05:41:14;;;;;;;5.53;2.22;;;18.30;99.10;;;;;;5058138;28;20606;-61
2023/10/07 05:43:48;;;;;;;7.10;2.30;;;18.30;99.10;;;;;;5059076;28;20047;-62
2023/10/07 05:46:17;;;;;;;4.75;2.15;;;18.30;99.00;;;;;;5061757;28;20039;-61
2023/10/07 05:48:44;;;;;;;12.40;2.50;;;18.30;98.90;;;;;;5063239;28;20075;-61
2023/10/07 05:51:11;;;;;;;5.05;2.75;;;18.40;99.00;;;;;;5061339;28;20496;-62
2023/10/07 05:53:39;;;;;;;6.53;2.83;;;18.30;99.00;;;;;;5061997;28;20037;-61
2023/10/07 05:56:06;;;;;;;5.10;2.50;;;18.20;99.00;;;;;;5057470;28;20499;-62
2023/10/07 05:58:37;;;;;;;10.20;3.00;;;18.20;99.30;;;;;;5062148;28;20029;-61
2023/10/07 06:01:03;;;;;;;6.20;2.67;;;18.10;99.40;;;;;;5056844;28;20033;-61
2023/10/07 06:03:30;;;;;;;4.80;2.03;;;18.10;99.50;;;;;;5061835;28;20131;-62
2023/10/07 06:05:59;;;;;;;5.35;2.67;;;18.00;99.60;;;;;;5057536;28;20060;-61
2023/10/07 06:08:29;;;;;;;10.15;3.20;;;18.00;99.80;;;;;;5062897;28;20036;-61
2023/10/07 06:10:56;;;;;;;6.75;2.80;;;18.00;99.90;;;;;;5055646;28;20044;-61
2023/10/07 06:13:23;;;;;;;6.57;2.42;;;18.10;99.90;;;;;;5062827;28;20033;-62
2023/10/07 06:15:52;;;;;;;4.68;2.88;;;18.10;99.80;;;;;;5056128;28;20033;-61
2023/10/07 06:18:18;;;;;;;7.55;3.22;;;18.20;99.70;;;;;;5062542;28;20410;-61
2023/10/07 06:20:53;;;;;;;5.30;3.17;;;18.20;99.60;;;;;;5058605;28;20047;-61
2023/10/07 06:23:24;;;;;;;5.60;2.38;;;18.10;99.70;;;;;;5059560;28;20030;-61
2023/10/07 06:25:51;;;;;;;6.75;2.58;;;18.20;99.70;;;;;;5055243;28;20120;-61
2023/10/07 06:34:00;;;;;;;6.68;2.63;;;18.20;99.70;;;;;;5056804;28;20370;-62
2023/10/07 06:36:30;;;;;;;6.38;3.13;;;18.20;99.80;;;;;;5056547;28;20028;-62
2023/10/07 06:38:59;;;;;;;8.50;2.85;;;18.30;99.90;;;;;;5059442;28;20492;-62
2023/10/07 06:41:29;;;;;;;8.32;3.00;;;18.20;99.90;;;;;;5057332;28;20078;-61
2023/10/07 06:44:08;;;;;;;8.63;3.35;;;18.20;99.90;;;;;;5059628;28;20041;-62
2023/10/07 06:46:44;;;;;;;7.60;2.75;;;18.10;99.90;;;;;;5056377;28;20036;-63
2023/10/07 06:49:18;;;;;;;7.75;3.10;;;18.10;99.90;;;;;;5059677;28;20133;-62
2023/10/07 06:51:58;;;;;;;8.90;3.22;;;18.10;99.90;;;;;;5056651;28;20041;-62
2023/10/07 06:54:32;;;;;;;7.50;3.05;;;18.10;99.90;;;;;;5058699;28;20032;-63
2023/10/07 06:56:58;;;;;;;7.90;3.40;;;18.10;99.90;;;;;;5054663;28;20127;-63
2023/10/07 06:59:27;;;;;;;8.50;3.10;;;18.00;99.90;;;;;;5056986;28;20166;-62
2023/10/07 07:01:56;;;;;;;9.25;3.30;;;18.00;99.90;;;;;;5052115;28;20463;-63
2023/10/07 07:04:23;;;;;;;6.68;3.00;;;18.00;99.90;;;;;;5060379;28;20491;-63
2023/10/07 07:12:17;;;;;;;6.55;2.90;;;17.90;99.90;;;;;;5055811;28;20085;-63
2023/10/07 07:14:50;;;;;;;6.25;3.40;;;18.00;99.90;;;;;;5056252;28;20100;-63
2023/10/07 07:17:29;;;;;;;6.55;3.10;;;18.00;99.90;;;;;;5051945;28;20071;-62
2023/10/07 07:22:42;;;;;;;6.20;2.70;;;18.00;99.90;;;;;;5057714;28;20075;-63
2023/10/07 07:25:12;;;;;;;8.93;2.80;;;18.00;99.90;;;;;;5057497;28;20029;-62
2023/10/07 07:27:45;;;;;;;5.93;2.78;;;18.00;99.90;;;;;;5060838;28;20037;-62
2023/10/07 07:30:57;;;;;;;6.15;2.50;;;18.10;99.90;;;;;;5059410;28;20032;-62
2023/10/07 07:33:11;;;;;;;6.97;2.60;;;18.10;99.90;;;;;;5052502;28;20055;-62
2023/10/07 07:35:44;;;;;;;6.00;2.95;;;18.10;99.90;;;;;;5058501;28;20037;-62
2023/10/07 07:38:26;;;;;;;7.35;2.60;;;18.10;99.90;;;;;;5060502;28;20520;-64
2023/10/07 07:43:47;;;;;;;9.27;2.83;;;18.30;99.90;;;;;;5052618;28;20043;-64
2023/10/07 07:49:08;;;;;;;3.60;2.08;;;18.40;99.90;;;;;;5059589;28;20049;-64
2023/10/07 07:51:37;;;;;;;5.93;2.60;;;18.40;99.90;;;;;;5053347;28;20033;-64
2023/10/07 07:54:06;;;;;;;3.50;2.35;;;18.40;99.90;;;;;;5057563;28;20037;-64
2023/10/07 07:56:33;;;;;;;6.28;2.28;;;18.40;99.90;;;;;;5054533;28;20039;-64
2023/10/07 07:58:58;;;;;;;5.88;2.42;;;18.30;99.90;;;;;;5061322;28;20025;-64
2023/10/07 08:01:31;;;;;;;7.68;2.70;;;18.40;99.90;;;;;;5057814;28;20105;-63
2023/10/07 08:04:09;;;;;;;7.28;3.95;;;18.40;99.90;;;;;;5058854;28;20405;-63
2023/10/07 08:06:36;;;;;;;4.60;2.97;;;18.40;99.90;;;;;;5056290;28;20535;-63
2023/10/07 08:09:03;;;;;;;6.15;2.38;;;18.40;99.90;;;;;;5059564;28;20041;-63
2023/10/07 08:11:38;;;;;;;7.55;2.28;;;18.40;99.90;;;;;;5055025;28;20054;-63
2023/10/07 08:14:10;;;;;;;3.72;2.67;;;18.40;99.90;;;;;;5058926;28;20033;-63
2023/10/07 08:17:10;;;;;;;4.15;2.65;;;18.40;99.90;;;;;;5055845;28;20634;-63
2023/10/07 08:19:30;;;;;;;6.95;3.90;;;18.30;99.90;;;;;;5055415;28;20125;-62
2023/10/07 08:22:02;;;;;;;7.43;3.58;;;18.30;99.90;;;;;;5052623;28;20756;-62
2023/10/07 08:24:31;;;;;;;8.27;3.38;;;18.30;99.90;;;;;;5058425;28;20043;-63
2023/10/07 08:27:03;;;;;;;6.65;3.22;;;18.30;99.90;;;;;;5053286;28;20452;-63
2023/10/07 08:29:33;;;;;;;7.47;6.18;;;18.30;99.90;;;;;;5061442;28;20037;-63
2023/10/07 08:32:00;;;;;;;7.75;4.65;;;18.40;99.90;;;;;;5054378;28;20041;-63
2023/10/07 08:34:33;;;;;;;5.10;3.95;;;18.40;99.90;;;;;;5061403;28;20033;-63
2023/10/07 08:37:02;;;;;;;4.45;2.90;;;18.50;99.90;;;;;;5053452;28;20140;-63
2023/10/07 08:39:28;;;;;;;5.32;2.55;;;18.50;99.90;;;;;;5059910;28;20425;-63
2023/10/07 08:41:58;;;;;;;6.93;2.55;;;18.50;99.90;;;;;;5053669;28;20029;-63
2023/10/07 08:44:31;;;;;;;4.43;2.85;;;18.50;99.90;;;;;;5059715;28;20111;-63
2023/10/07 08:47:05;;;;;;;6.28;2.88;;;18.50;99.90;;;;;;5054009;28;20037;-63
2023/10/07 08:49:35;;;;;;;3.85;2.55;;;18.60;99.90;;;;;;5060421;28;20040;-64
2023/10/07 08:52:08;;;;;;;5.93;3.40;;;18.60;99.90;;;;;;5056407;28;20032;-63
2023/10/07 08:54:37;;;;;;;5.05;3.30;;;18.60;99.90;;;;;;5055942;28;20037;-63
2023/10/07 08:57:37;;;;;;;6.93;3.50;;;18.50;99.90;;;;;;5056791;28;20070;-64
2023/10/07 08:59:59;;;;;;;6.07;3.17;;;18.50;99.90;;;;;;5055001;28;20142;-64
2023/10/07 09:02:30;;;;;;;4.45;3.03;;;18.60;99.90;;;;;;5054396;28;20032;-63
2023/10/07 09:04:59;;;;;;;8.98;3.15;;;18.60;99.90;;;;;;5050671;28;20442;-63
2023/10/07 09:07:32;;;;;;;7.80;3.22;;;18.60;99.90;;;;;;5055291;28;20215;-63
2023/10/07 09:10:10;;;;;;;5.03;3.35;;;18.60;99.90;;;;;;5061898;28;20047;-64
2023/10/07 09:12:45;;;;;;;9.57;3.53;;;18.60;99.90;;;;;;5061232;28;20036;-63
2023/10/07 09:15:20;;;;;;;9.15;4.75;;;18.60;99.90;;;;;;5061101;28;20087;-63
2023/10/07 09:17:45;;;;;;;9.00;5.22;;;18.60;99.90;;;;;;5061441;28;20029;-63
2023/10/07 09:20:17;;;;;;;5.60;4.22;;;18.60;99.90;;;;;;5056668;28;20051;-63
2023/10/07 09:22:53;;;;;;;8.27;4.72;;;18.60;99.90;;;;;;5054932;28;20036;-63
2023/10/07 09:25:31;;;;;;;5.90;4.20;;;18.60;99.90;;;;;;5055225;28;20402;-63
2023/10/07 09:27:58;;;;;;;6.90;4.15;;;18.50;99.90;;;;;;5058095;28;20072;-63
2023/10/07 09:33:17;;;;;;;10.65;4.22;;;18.60;99.90;;;;;;5060420;28;20036;-63
2023/10/07 09:35:49;;;;;;;7.28;4.50;;;18.60;99.90;;;;;;5061408;28;20039;-63
2023/10/07 09:43:29;;;;;;;9.85;4.50;;;18.70;99.90;;;;;;5062431;28;20029;-63
2023/10/07 09:45:58;;;;;;;8.00;5.20;;;18.70;99.90;;;;;;5057938;28;20036;-63
2023/10/07 09:48:41;;;;;;;10.75;4.90;;;18.70;99.90;;;;;;5060871;28;20060;-62
2023/10/07 09:51:23;;;;;;;9.73;5.07;;;18.70;99.90;;;;;;5058572;28;20405;-62
2023/10/07 09:53:51;;;;;;;9.23;5.40;;;18.60;99.90;;;;;;5060195;28;20143;-62
2023/10/07 09:57:06;;;;;;;12.70;5.68;;;18.60;99.90;;;;;;5061792;28;20052;-62
2023/10/07 09:59:56;;;;;;;9.13;5.90;;;18.50;99.90;;;;;;5057406;28;20944;-62
2023/10/07 10:02:32;;;;;;;8.45;5.40;;;18.40;99.90;;;;;;5055153;28;20090;-62
2023/10/07 10:05:05;;;;;;;;;;;18.30;99.90;;;;;;5051610;28;20671;-62
2023/10/07 10:07:32;;;;;;;8.75;5.57;;;18.20;99.90;;;;;;5058200;28;19920;-62
2023/10/07 10:10:07;;;;;;;11.57;6.32;;;18.30;99.90;;;;;;5061471;28;20173;-62
2023/10/07 10:18:02;;;;;;;12.25;7.80;;;18.40;99.90;;;;;;5060799;28;20029;-62
2023/10/07 10:20:42;;;;;;;12.18;8.07;;;18.50;99.90;;;;;;5061211;28;20037;-62
2023/10/07 10:23:22;;;;;;;11.70;6.57;;;18.50;99.90;;;;;;5057473;28;20055;-62
2023/10/07 10:25:50;;;;;;;11.73;7.68;;;18.60;99.90;;;;;;5053447;28;20620;-62
2023/10/07 10:28:29;;;;;;;13.52;7.30;;;18.50;99.90;;;;;;5059857;28;20031;-62
2023/10/07 10:30:55;;;;;;;10.57;7.20;;;18.50;99.90;;;;;;5053860;28;20787;-62
2023/10/07 10:33:28;;;;;;;12.57;8.00;;;18.40;99.90;;;;;;5054947;28;20129;-62
2023/10/07 10:35:57;;;;;;;19.10;10.15;;;18.40;99.90;;;;;;5056688;28;20044;-62
2023/10/07 10:38:36;;;;;;;12.75;7.80;;;18.40;99.90;;;;;;5056532;28;20032;-62
2023/10/07 10:41:04;;;;;;;10.20;7.25;;;18.30;99.90;;;;;;5056471;28;20037;-62
2023/10/07 10:43:33;;;;;;;10.07;7.38;;;18.40;99.90;;;;;;5061642;28;20039;-62
2023/10/07 10:46:08;;;;;;;14.25;7.45;;;18.40;99.90;;;;;;5058103;28;20093;-62
2023/10/07 10:48:37;;;;;;;11.50;7.60;;;18.40;99.90;;;;;;5055380;28;20036;-62
2023/10/07 10:51:07;;;;;;;10.70;6.95;;;18.40;99.90;;;;;;5059328;28;20037;-62
2023/10/07 10:53:34;;;;;;;12.40;6.82;;;18.40;99.90;;;;;;5052686;28;20157;-62
2023/10/07 10:56:03;;;;;;;13.02;8.13;;;18.50;99.90;;;;;;5055907;28;20493;-62
2023/10/07 10:58:30;;;;;;;11.50;7.32;;;18.40;99.90;;;;;;5056838;28;20024;-62
2023/10/07 11:00:56;;;;;;;12.38;7.30;;;18.40;99.90;;;;;;5058728;28;20067;-62
2023/10/07 11:03:21;;;;;;;13.80;8.02;;;18.40;99.90;;;;;;5056727;28;20132;-62
2023/10/07 11:05:54;;;;;;;14.27;7.13;;;18.40;99.90;;;;;;5056376;28;20115;-62
2023/10/07 11:08:24;;;;;;;12.70;7.60;;;18.30;99.90;;;;;;5056824;28;20459;-62
2023/10/07 11:10:54;;;;;;;8.63;6.63;;;18.30;99.90;;;;;;5057686;28;20059;-62
2023/10/07 11:13:20;;;;;;;10.13;6.47;;;18.40;99.90;;;;;;5056014;28;20029;-61
2023/10/07 11:16:12;;;;;;;21.60;12.15;;;18.40;99.90;;;;;;5060782;28;20030;-72
2023/10/07 11:18:46;;;;;;;13.05;8.60;;;18.50;99.90;;;;;;5055166;28;20040;-62
2023/10/07 11:21:14;;;;;;;11.27;6.95;;;18.50;99.90;;;;;;5053272;28;20712;-62
2023/10/07 11:23:54;;;;;;;10.90;7.20;;;18.50;99.90;;;;;;5057529;28;20259;-62
2023/10/07 11:26:27;;;;;;;9.98;6.95;;;18.60;99.90;;;;;;5060859;28;20044;-62
2023/10/07 11:28:56;;;;;;;9.35;6.63;;;18.70;99.90;;;;;;5058961;28;20106;-62
2023/10/07 11:31:30;;;;;;;10.05;7.18;;;18.80;99.90;;;;;;5056260;28;20091;-62
2023/10/07 11:33:56;;;;;;;13.40;7.22;;;18.80;99.90;;;;;;5055100;28;20127;-62
2023/10/07 11:36:23;;;;;;;12.30;7.35;;;18.90;99.90;;;;;;5054290;28;20029;-62
2023/10/07 11:38:50;;;;;;;9.00;6.63;;;18.90;99.90;;;;;;5060318;28;20032;-62
2023/10/07 11:41:16;;;;;;;9.63;5.90;;;18.90;99.90;;;;;;5060213;28;20028;-62
2023/10/07 11:43:48;;;;;;;10.75;6.07;;;19.00;99.90;;;;;;5056964;28;20485;-62
2023/10/07 11:46:15;;;;;;;10.50;6.38;;;19.00;99.90;;;;;;5056064;28;20052;-62
2023/10/07 11:48:44;;;;;;;8.43;5.85;;;18.90;99.90;;;;;;5060235;28;20067;-60
2023/10/07 11:51:11;;;;;;;10.57;7.63;;;18.90;99.90;;;;;;5060755;28;20513;-62
2023/10/07 11:53:39;;;;;;;10.88;6.70;;;19.00;99.90;;;;;;5057757;28;20518;-63
2023/10/07 11:56:11;;;;;;;9.77;6.60;;;19.00;99.90;;;;;;5059806;28;20035;-63
2023/10/07 11:58:37;;;;;;;10.80;6.30;;;18.90;99.90;;;;;;5054560;28;20078;-62
2023/10/07 12:01:03;;;;;;;14.32;5.90;;;18.90;99.90;;;;;;5058561;28;20029;-63
2023/10/07 12:03:30;;;;;;;12.20;5.97;;;18.90;99.90;;;;;;5057912;28;20523;-63
2023/10/07 12:05:58;;;;;;;10.98;5.50;;;18.90;99.90;;;;;;5052323;28;20504;-63
2023/10/07 12:08:24;;;;;;;8.10;5.68;;;19.00;99.90;;;;;;5058680;28;20036;-62
2023/10/07 12:10:51;;;;;;;9.07;5.97;;;18.90;99.90;;;;;;5058784;28;20115;-63
2023/10/07 12:13:19;;;;;;;13.98;5.95;;;18.90;99.90;;;;;;5058253;28;20766;-63
2023/10/07 12:15:45;;;;;;;11.73;5.82;;;18.80;99.90;;;;;;5060819;28;20036;-63
2023/10/07 12:18:16;;;;;;;12.93;6.25;;;18.70;99.90;;;;;;5054212;28;20590;-62
2023/10/07 12:20:44;;;;;;;10.77;6.22;;;18.80;99.90;;;;;;5056625;28;20119;-64
2023/10/07 12:23:10;;;;;;;9.93;5.88;;;18.80;99.90;;;;;;5056329;28;20094;-64
2023/10/07 12:25:37;;;;;;;13.25;6.05;;;18.90;99.90;;;;;;5053607;28;20044;-64
2023/10/07 12:28:05;;;;;;;9.70;5.65;;;18.90;99.90;;;;;;5054739;28;20067;-64
2023/10/07 12:30:35;;;;;;;12.40;5.95;;;18.90;99.90;;;;;;5057828;28;20032;-64
2023/10/07 12:33:04;;;;;;;11.90;5.78;;;18.90;99.90;;;;;;5059379;28;20123;-64
2023/10/07 12:35:31;;;;;;;10.43;6.68;;;19.00;99.90;;;;;;5050790;28;20304;-64
2023/10/07 12:37:59;;;;;;;13.98;5.60;;;19.00;99.90;;;;;;5055626;28;20493;-64
2023/10/07 12:40:29;;;;;;;8.93;4.80;;;19.00;99.90;;;;;;5056083;28;20029;-64
2023/10/07 12:42:58;;;;;;;8.98;5.50;;;19.00;99.90;;;;;;5052288;28;20032;-64
2023/10/07 12:45:25;;;;;;;9.35;5.20;;;19.10;99.90;;;;;;5061014;28;20071;-64
2023/10/07 12:47:55;;;;;;;9.75;5.90;;;19.10;99.90;;;;;;5062695;28;20144;-64
2023/10/07 12:50:28;;;;;;;11.10;5.30;;;19.10;99.90;;;;;;5061668;28;20037;-64
2023/10/07 12:52:56;;;;;;;11.00;5.63;;;19.10;99.90;;;;;;5059529;28;20055;-64
2023/10/07 12:55:23;;;;;;;9.98;5.47;;;19.10;99.90;;;;;;5057358;28;20070;-66
2023/10/07 12:57:52;;;;;;;10.27;5.40;;;19.20;99.90;;;;;;5052188;28;20868;-64
2023/10/07 13:00:32;;;;;;;7.10;5.25;;;19.20;99.90;;;;;;5056280;28;20040;-64
2023/10/07 13:02:58;;;;;;;11.88;5.50;;;19.20;99.90;;;;;;5059788;28;20079;-64
2023/10/07 13:05:24;;;;;;;10.73;6.20;;;19.30;99.90;;;;;;5057109;28;20036;-64
2023/10/07 13:07:54;;;;;;;7.78;5.40;;;19.30;99.90;;;;;;5055680;28;20234;-64
2023/10/07 13:10:20;;;;;;;11.20;5.30;;;19.30;99.90;;;;;;5057839;28;20490;-64
2023/10/07 13:12:49;;;;;;;10.65;5.63;;;19.40;99.90;;;;;;5059839;28;20037;-63
2023/10/07 13:15:15;;;;;;;11.30;6.70;;;19.30;99.90;;;;;;5058710;28;20058;-63
2023/10/07 13:17:45;;;;;;;10.50;6.07;;;19.30;99.90;;;;;;5062448;28;20040;-64
2023/10/07 13:20:26;;;;;;;12.68;5.25;;;19.30;99.90;;;;;;5056516;28;20029;-63
2023/10/07 13:23:00;;;;;;;6.93;5.25;;;19.30;99.90;;;;;;5058262;28;20097;-63
2023/10/07 13:25:27;;;;;;;9.57;5.75;;;19.30;99.90;;;;;;5061999;28;20036;-63
2023/10/07 13:27:57;;;;;;;9.60;5.47;;;19.30;99.90;;;;;;5060255;28;20047;-63
2023/10/07 13:30:26;;;;;;;8.63;5.22;;;19.30;99.90;;;;;;5061087;28;20040;-63
2023/10/07 13:32:54;;;;;;;8.23;4.88;;;19.30;99.90;;;;;;5057674;28;20040;-63
2023/10/07 13:35:21;;;;;;;12.80;5.25;;;19.30;99.90;;;;;;5060598;28;20112;-63
2023/10/07 13:37:52;;;;;;;8.20;5.32;;;19.30;99.90;;;;;;5060733;28;20037;-64
2023/10/07 13:40:19;;;;;;;11.57;6.03;;;19.30;99.90;;;;;;5060340;28;20046;-64
2023/10/07 13:42:47;;;;;;;8.32;4.93;;;19.40;99.90;;;;;;5061525;28;20050;-63
2023/10/07 13:45:24;;;;;;;8.68;4.93;;;19.40;99.90;;;;;;5054837;28;20736;-62
2023/10/07 13:47:51;;;;;;;9.40;5.13;;;19.50;99.90;;;;;;5057584;28;20028;-62
2023/10/07 13:50:20;;;;;;;11.63;5.03;;;19.50;99.90;;;;;;5061920;28;20473;-63
2023/10/07 13:52:50;;;;;;;8.65;5.20;;;19.60;99.90;;;;;;5060624;28;20052;-62
2023/10/07 13:56:12;;;;;;;10.55;5.43;;;19.70;99.90;;;;;;5060915;28;20036;-63
2023/10/07 13:58:15;;;;;;;9.43;5.20;;;19.80;99.90;;;;;;5056692;28;20053;-63
2023/10/07 14:00:45;;;;;;;10.30;5.85;;;19.90;99.90;;;;;;5057303;28;20085;-63
2023/10/07 14:03:35;;;;;;;10.40;5.32;;;19.90;99.90;;;;;;5061691;28;20109;-63
2023/10/07 14:06:05;;;;;;;9.30;5.50;;;20.00;99.90;;;;;;5059393;28;20033;-63
2023/10/07 14:08:36;;;;;;;7.25;4.90;;;20.00;99.90;;;;;;5055696;28;20066;-62
2023/10/07 14:11:04;;;;;;;8.88;5.30;;;19.90;99.90;;;;;;5058314;28;20119;-62
2023/10/07 14:13:32;;;;;;;7.68;4.75;;;19.90;99.90;;;;;;5059873;28;20067;-62
2023/10/07 14:16:06;;;;;;;9.68;5.30;;;19.90;99.90;;;;;;5061248;28;20039;-63
2023/10/07 14:18:32;;;;;;;8.65;5.63;;;19.90;99.90;;;;;;5058584;28;20135;-62